Time;durP1;ratioP1;P1;durP2;ratioP2;P2;SDS_P1;SDS_P2;PMS_P1;PMS_P2;Temp;Humidity;BMP_temperature;BMP_pressure;BME280_temperature;BME280_humidity;BME280_pressure;Samples;Min_cycle;Max_cycle;Signal;HPM_P1;HPM_P2
2022/10/27 00:00:55;;;;;;;;;;;;;;;;;;5065653;28;19909;-79
2022/10/27 00:03:20;;;;;;;;;;;;;;;;;;5047328;28;19908;-80
2022/10/27 00:05:46;;;;;;;;;;;;;;;;;;5047291;28;20385;-80
2022/10/27 00:08:12;;;;;;;;;;;;;;;;;;5065454;28;19934;-80
2022/10/27 00:10:41;;;;;;;;;;;;;;;;;;5047319;28;19913;-80
2022/10/27 00:13:07;;;;;;;;;;;;;;;;;;5065782;28;19917;-80
2022/10/27 00:15:33;;;;;;;;;;;;;;;;;;5046769;28;20027;-80
2022/10/27 00:17:58;;;;;;;;;;;;;;;;;;5047402;28;19909;-81
2022/10/27 00:20:24;;;;;;;;;;;;;;;;;;5047683;28;19931;-80
2022/10/27 00:22:50;;;;;;;;;;;;;;;;;;5047004;28;19915;-81
2022/10/27 00:25:16;;;;;;;;;;;;;;;;;;5065039;28;19908;-81
2022/10/27 00:27:42;;;;;;;;;;;;;;;;;;5065007;28;19909;-80
2022/10/27 00:30:08;;;;;;;;;;;;;;;;;;5065529;28;19913;-80
2022/10/27 00:32:34;;;;;;;;;;;;;;;;;;5065660;28;19920;-80
2022/10/27 00:35:00;;;;;;;;;;;;;;;;;;5064966;28;19955;-80
2022/10/27 00:37:26;;;;;;;;;;;;;;;;;;5045816;28;19908;-80
2022/10/27 00:39:52;;;;;;;;;;;;;;;;;;5046696;28;19947;-79
2022/10/27 00:42:18;;;;;;;;;;;;;;;;;;5047111;28;20394;-80
2022/10/27 00:44:44;;;;;;;;;;;;;;;;;;5046921;28;19909;-82
2022/10/27 00:47:09;;;;;;;;;;;;;;;;;;5044871;28;20285;-80
2022/10/27 00:49:35;;;;;;;;;;;;;;;;;;5039807;28;20387;-78
2022/10/27 00:52:01;;;;;;;;;;;;;;;;;;5037157;28;19970;-79
2022/10/27 00:54:27;;;;;;;;;;;;;;;;;;5057262;28;19913;-78
2022/10/27 00:56:53;;;;;;;;;;;;;;;;;;5041210;28;19912;-80
2022/10/27 00:59:19;;;;;;;;;;;;;;;;;;5042065;28;19916;-80
2022/10/27 01:01:45;;;;;;;;;;;;;;;;;;5055759;28;19905;-79
2022/10/27 01:04:11;;;;;;;;;;;;;;;;;;5035772;28;20023;-78
2022/10/27 01:06:37;;;;;;;;;;;;;;;;;;5036245;28;20050;-78
2022/10/27 01:09:02;;;;;;;;;;;;;;;;;;5054211;28;19905;-78
2022/10/27 01:11:28;;;;;;;;;;;;;;;;;;5036253;28;19917;-78
2022/10/27 01:13:54;;;;;;;;;;;;;;;;;;5036258;28;19921;-79
2022/10/27 01:16:20;;;;;;;;;;;;;;;;;;5054307;28;19999;-78
2022/10/27 01:18:46;;;;;;;;;;;;;;;;;;5056646;28;19915;-80
2022/10/27 01:21:12;;;;;;;;;;;;;;;;;;5043442;28;19916;-80
2022/10/27 01:23:38;;;;;;;;;;;;;;;;;;5039787;28;19992;-79
2022/10/27 01:26:04;;;;;;;;;;;;;;;;;;5041746;28;19916;-80
2022/10/27 01:28:29;;;;;;;;;;;;;;;;;;5039776;28;19975;-79
2022/10/27 01:30:55;;;;;;;;;;;;;;;;;;5039444;28;19913;-79
2022/10/27 01:33:21;;;;;;;;;;;;;;;;;;5055567;28;19909;-80
2022/10/27 01:35:47;;;;;;;;;;;;;;;;;;5055054;28;19913;-78
2022/10/27 01:38:13;;;;;;;;;;;;;;;;;;5036364;28;20015;-78
2022/10/27 01:40:39;;;;;;;;;;;;;;;;;;5036486;28;19909;-78
2022/10/27 01:43:05;;;;;;;;;;;;;;;;;;5036745;28;19913;-79
2022/10/27 01:45:31;;;;;;;;;;;;;;;;;;5054558;28;19916;-78
2022/10/27 01:47:57;;;;;;;;;;;;;;;;;;5035977;28;20399;-79
2022/10/27 01:50:23;;;;;;;;;;;;;;;;;;5035707;28;20424;-78
2022/10/27 01:52:48;;;;;;;;;;;;;;;;;;5035537;28;19943;-78
2022/10/27 01:55:14;;;;;;;;;;;;;;;;;;5035296;28;20467;-78
2022/10/27 01:57:40;;;;;;;;;;;;;;;;;;5053210;28;19908;-78
2022/10/27 02:00:06;;;;;;;;;;;;;;;;;;5053096;28;20369;-78
2022/10/27 02:02:32;;;;;;;;;;;;;;;;;;5035131;28;19909;-78
2022/10/27 02:04:59;;;;;;;;;;;;;;;;;;5034627;28;19913;-79
2022/10/27 02:07:25;;;;;;;;;;;;;;;;;;5035031;28;19916;-77
2022/10/27 02:09:51;;;;;;;;;;;;;;;;;;5035241;28;19909;-78
2022/10/27 02:12:16;;;;;;;;;;;;;;;;;;5052642;28;19921;-78
2022/10/27 02:14:42;;;;;;;;;;;;;;;;;;5055307;22;19927;-78
2022/10/27 02:17:08;;;;;;;;;;;;;;;;;;5051767;28;19952;-79
2022/10/27 02:19:34;;;;;;;;;;;;;;;;;;5051521;28;19913;-79
2022/10/27 02:22:00;;;;;;;;;;;;;;;;;;5052846;28;20360;-79
2022/10/27 02:24:26;;;;;;;;;;;;;;;;;;5037003;28;19913;-79
2022/10/27 02:26:52;;;;;;;;;;;;;;;;;;5031738;28;19913;-79
2022/10/27 02:29:18;;;;;;;;;;;;;;;;;;5031028;28;20011;-79
2022/10/27 02:31:44;;;;;;;;;;;;;;;;;;5031597;28;19921;-78
2022/10/27 02:34:09;;;;;;;;;;;;;;;;;;5031618;28;19909;-77
2022/10/27 02:36:35;;;;;;;;;;;;;;;;;;5032708;28;20281;-78
2022/10/27 02:39:01;;;;;;;;;;;;;;;;;;5031109;28;19909;-79
2022/10/27 02:41:27;;;;;;;;;;;;;;;;;;5031595;28;20544;-79
2022/10/27 02:43:53;;;;;;;;;;;;;;;;;;5032633;28;19909;-79
2022/10/27 02:46:19;;;;;;;;;;;;;;;;;;5031269;28;19932;-79
2022/10/27 02:48:45;;;;;;;;;;;;;;;;;;5031270;28;19916;-79
2022/10/27 02:51:11;;;;;;;;;;;;;;;;;;5032544;28;19975;-80
2022/10/27 02:53:36;;;;;;;;;;;;;;;;;;5031484;28;20003;-79
2022/10/27 02:56:02;;;;;;;;;;;;;;;;;;5031312;28;19909;-79
2022/10/27 02:58:28;;;;;;;;;;;;;;;;;;5033063;28;19913;-80
2022/10/27 03:00:54;;;;;;;;;;;;;;;;;;5036845;28;19913;-81
2022/10/27 03:03:20;;;;;;;;;;;;;;;;;;5037009;28;19960;-79
2022/10/27 03:05:46;;;;;;;;;;;;;;;;;;5035332;28;19909;-78
2022/10/27 03:08:12;;;;;;;;;;;;;;;;;;5035284;28;19909;-78
2022/10/27 03:10:38;;;;;;;;;;;;;;;;;;5036487;28;19913;-79
2022/10/27 03:13:04;;;;;;;;;;;;;;;;;;5036620;28;19917;-77
2022/10/27 03:15:30;;;;;;;;;;;;;;;;;;5035472;28;19916;-79
2022/10/27 03:17:55;;;;;;;;;;;;;;;;;;5035165;28;19909;-78
2022/10/27 03:20:21;;;;;;;;;;;;;;;;;;5036527;28;19909;-78
2022/10/27 03:22:47;;;;;;;;;;;;;;;;;;5035668;28;20000;-79
2022/10/27 03:25:14;;;;;;;;;;;;;;;;;;5037679;28;19909;-81
2022/10/27 03:27:40;;;;;;;;;;;;;;;;;;5036155;28;19909;-79
2022/10/27 03:30:06;;;;;;;;;;;;;;;;;;5034946;28;19917;-79
2022/10/27 03:32:31;;;;;;;;;;;;;;;;;;5034706;28;20358;-78
2022/10/27 03:34:57;;;;;;;;;;;;;;;;;;5034726;28;19967;-78
2022/10/27 03:37:23;;;;;;;;;;;;;;;;;;5034772;28;19932;-79
2022/10/27 03:39:49;;;;;;;;;;;;;;;;;;5034398;28;20003;-77
2022/10/27 03:42:15;;;;;;;;;;;;;;;;;;5034623;28;19913;-79
2022/10/27 03:44:41;;;;;;;;;;;;;;;;;;5035651;28;19909;-79
2022/10/27 03:47:07;;;;;;;;;;;;;;;;;;5034817;28;19909;-78
2022/10/27 03:49:33;;;;;;;;;;;;;;;;;;5035407;28;19963;-81
2022/10/27 03:51:59;;;;;;;;;;;;;;;;;;5018087;28;19913;-79
2022/10/27 03:54:24;;;;;;;;;;;;;;;;;;5017918;28;20059;-79
2022/10/27 03:56:50;;;;;;;;;;;;;;;;;;5018554;28;19916;-79
2022/10/27 03:59:16;;;;;;;;;;;;;;;;;;5018571;28;19909;-78
2022/10/27 04:01:42;;;;;;;;;;;;;;;;;;5035688;28;19932;-78
2022/10/27 04:04:08;;;;;;;;;;;;;;;;;;5035608;28;19963;-80
2022/10/27 04:06:34;;;;;;;;;;;;;;;;;;5035351;28;19916;-79
2022/10/27 04:09:00;;;;;;;;;;;;;;;;;;5017645;28;19933;-79
2022/10/27 04:11:26;;;;;;;;;;;;;;;;;;5035149;28;19913;-79
2022/10/27 04:13:52;;;;;;;;;;;;;;;;;;5016440;28;19924;-79
2022/10/27 04:16:17;;;;;;;;;;;;;;;;;;5017490;28;19909;-80
2022/10/27 04:18:43;;;;;;;;;;;;;;;;;;5017355;28;20012;-79
2022/10/27 04:21:09;;;;;;;;;;;;;;;;;;5017571;28;19955;-79
2022/10/27 04:23:35;;;;;;;;;;;;;;;;;;5017411;28;19913;-79
2022/10/27 04:26:01;;;;;;;;;;;;;;;;;;5034995;28;20333;-79
2022/10/27 04:28:27;;;;;;;;;;;;;;;;;;5017268;28;19909;-78
2022/10/27 04:30:53;;;;;;;;;;;;;;;;;;5017324;28;19919;-79
2022/10/27 04:33:19;;;;;;;;;;;;;;;;;;5017429;28;19916;-78
2022/10/27 04:35:44;;;;;;;;;;;;;;;;;;5017325;28;20415;-80
2022/10/27 04:38:10;;;;;;;;;;;;;;;;;;5016870;28;19918;-79
2022/10/27 04:40:36;;;;;;;;;;;;;;;;;;5035450;28;20288;-81
2022/10/27 04:43:02;;;;;;;;;;;;;;;;;;5018077;28;19913;-81
2022/10/27 04:45:28;;;;;;;;;;;;;;;;;;5017604;28;20387;-79
2022/10/27 04:47:54;;;;;;;;;;;;;;;;;;5017822;28;19909;-78
2022/10/27 04:50:21;;;;;;;;;;;;;;;;;;5017539;28;20254;-79
2022/10/27 04:52:47;;;;;;;;;;;;;;;;;;5018288;28;19913;-79
2022/10/27 04:55:12;;;;;;;;;;;;;;;;;;5017607;28;19910;-79
2022/10/27 04:57:38;;;;;;;;;;;;;;;;;;5017035;28;19909;-79
2022/10/27 05:00:04;;;;;;;;;;;;;;;;;;5016910;28;19909;-79
2022/10/27 05:02:30;;;;;;;;;;;;;;;;;;5016607;28;19956;-77
2022/10/27 05:04:56;;;;;;;;;;;;;;;;;;5016492;28;19909;-79
2022/10/27 05:07:22;;;;;;;;;;;;;;;;;;5034488;28;19909;-79
2022/10/27 05:09:48;;;;;;;;;;;;;;;;;;5034516;28;19909;-79
2022/10/27 05:12:14;;;;;;;;;;;;;;;;;;5034248;28;19920;-79
2022/10/27 05:14:40;;;;;;;;;;;;;;;;;;5016370;28;19917;-79
2022/10/27 05:17:05;;;;;;;;;;;;;;;;;;5034794;28;20270;-78
2022/10/27 05:19:31;;;;;;;;;;;;;;;;;;5016629;28;20016;-79
2022/10/27 05:21:57;;;;;;;;;;;;;;;;;;5016717;28;20352;-79
2022/10/27 05:24:23;;;;;;;;;;;;;;;;;;5034237;28;19916;-78
2022/10/27 05:26:49;;;;;;;;;;;;;;;;;;5016402;28;19909;-79
2022/10/27 05:29:15;;;;;;;;;;;;;;;;;;5033885;28;19913;-80
2022/10/27 05:31:41;;;;;;;;;;;;;;;;;;5016209;28;19921;-78
2022/10/27 05:34:07;;;;;;;;;;;;;;;;;;5034031;28;19909;-77
2022/10/27 05:36:33;;;;;;;;;;;;;;;;;;5017879;28;20373;-78
2022/10/27 05:38:59;;;;;;;;;;;;;;;;;;5015601;28;19951;-79
2022/10/27 05:41:24;;;;;;;;;;;;;;;;;;5017771;28;20487;-80
2022/10/27 05:43:50;;;;;;;;;;;;;;;;;;5017214;28;19909;-78
2022/10/27 05:46:16;;;;;;;;;;;;;;;;;;5017652;28;19905;-80
2022/10/27 05:48:42;;;;;;;;;;;;;;;;;;5033550;28;19909;-79
2022/10/27 05:51:08;;;;;;;;;;;;;;;;;;5016591;28;19913;-79
2022/10/27 05:53:34;;;;;;;;;;;;;;;;;;5033921;28;19913;-79
2022/10/27 05:56:00;;;;;;;;;;;;;;;;;;5033417;28;20423;-79
2022/10/27 05:58:26;;;;;;;;;;;;;;;;;;5032130;28;19917;-78
2022/10/27 06:00:51;;;;;;;;;;;;;;;;;;5032188;28;20341;-80
2022/10/27 06:03:18;;;;;;;;;;;;;;;;;;5032250;28;19910;-80
2022/10/27 06:05:44;;;;;;;;;;;;;;;;;;5032010;28;20355;-80
2022/10/27 06:08:10;;;;;;;;;;;;;;;;;;5031901;28;19910;-80
2022/10/27 06:10:35;;;;;;;;;;;;;;;;;;5031967;28;19913;-79
2022/10/27 06:13:01;;;;;;;;;;;;;;;;;;5031793;28;19952;-80
2022/10/27 06:15:27;;;;;;;;;;;;;;;;;;5031953;28;19916;-79
2022/10/27 06:17:53;;;;;;;;;;;;;;;;;;5032313;28;19909;-79
2022/10/27 06:20:19;;;;;;;;;;;;;;;;;;5031933;28;19909;-79
2022/10/27 06:22:45;;;;;;;;;;;;;;;;;;5031589;28;19931;-78
2022/10/27 06:25:11;;;;;;;;;;;;;;;;;;5031528;28;19909;-78
2022/10/27 06:27:37;;;;;;;;;;;;;;;;;;5032782;28;19909;-77
2022/10/27 06:30:03;;;;;;;;;;;;;;;;;;5031948;28;19916;-79
2022/10/27 06:32:28;;;;;;;;;;;;;;;;;;5032241;28;19917;-83
2022/10/27 06:34:54;;;;;;;;;;;;;;;;;;5031160;28;19909;-79
2022/10/27 06:37:20;;;;;;;;;;;;;;;;;;5032647;28;19909;-80
2022/10/27 06:39:46;;;;;;;;;;;;;;;;;;5031163;28;19910;-79
2022/10/27 06:42:12;;;;;;;;;;;;;;;;;;5030051;28;19960;-80
2022/10/27 06:44:38;;;;;;;;;;;;;;;;;;5029970;28;19910;-79
2022/10/27 06:47:04;;;;;;;;;;;;;;;;;;5029948;28;19916;-78
2022/10/27 06:49:30;;;;;;;;;;;;;;;;;;5029890;28;20353;-78
2022/10/27 06:51:56;;;;;;;;;;;;;;;;;;5029924;28;19913;-78
2022/10/27 06:54:22;;;;;;;;;;;;;;;;;;5031007;28;19988;-79
2022/10/27 06:56:48;;;;;;;;;;;;;;;;;;5032051;28;19909;-79
2022/10/27 06:59:14;;;;;;;;;;;;;;;;;;5031359;28;19909;-79
2022/10/27 07:01:39;;;;;;;;;;;;;;;;;;5031451;28;20292;-79
2022/10/27 07:04:05;;;;;;;;;;;;;;;;;;5031384;28;19994;-81
2022/10/27 07:06:31;;;;;;;;;;;;;;;;;;5032402;28;19909;-81
2022/10/27 07:08:57;;;;;;;;;;;;;;;;;;5032313;28;19909;-79
2022/10/27 07:11:27;;;;;;;;;;;;;;;;;;5032390;28;19920;-79
2022/10/27 07:13:53;;;;;;;;;;;;;;;;;;5031599;28;20007;-79
2022/10/27 07:16:19;;;;;;;;;;;;;;;;;;5030968;28;19949;-81
2022/10/27 07:18:44;;;;;;;;;;;;;;;;;;5030526;28;20361;-81
2022/10/27 07:21:10;;;;;;;;;;;;;;;;;;5031318;28;19956;-79
2022/10/27 07:23:36;;;;;;;;;;;;;;;;;;5031259;28;20392;-78
2022/10/27 07:26:02;;;;;;;;;;;;;;;;;;5030998;28;19960;-81
2022/10/27 07:28:28;;;;;;;;;;;;;;;;;;5031051;28;20578;-82
2022/10/27 07:30:54;;;;;;;;;;;;;;;;;;5031327;28;19905;-81
2022/10/27 07:33:20;;;;;;;;;;;;;;;;;;5030842;28;20361;-81
2022/10/27 07:35:46;;;;;;;;;;;;;;;;;;5031069;28;19920;-79
2022/10/27 07:38:11;;;;;;;;;;;;;;;;;;5030967;28;20016;-80
2022/10/27 07:40:37;;;;;;;;;;;;;;;;;;5032369;28;19909;-81
2022/10/27 07:43:03;;;;;;;;;;;;;;;;;;5031168;28;19909;-81
2022/10/27 07:45:29;;;;;;;;;;;;;;;;;;5031146;28;19909;-82
2022/10/27 07:47:55;;;;;;;;;;;;;;;;;;5035169;28;19968;-82
2022/10/27 07:50:21;;;;;;;;;;;;;;;;;;5034707;28;19928;-82
2022/10/27 07:52:47;;;;;;;;;;;;;;;;;;5034679;28;19913;-80
2022/10/27 07:55:13;;;;;;;;;;;;;;;;;;5034756;28;19909;-82
2022/10/27 07:57:39;;;;;;;;;;;;;;;;;;5034725;28;19912;-82
2022/10/27 08:00:05;;;;;;;;;;;;;;;;;;5034705;28;20072;-81
2022/10/27 08:02:31;;;;;;;;;;;;;;;;;;5034657;28;19906;-82
2022/10/27 08:04:57;;;;;;;;;;;;;;;;;;5034351;28;19910;-81
2022/10/27 08:07:23;;;;;;;;;;;;;;;;;;5034750;28;19905;-82
2022/10/27 08:09:49;;;;;;;;;;;;;;;;;;5034481;28;19940;-81
2022/10/27 08:12:14;;;;;;;;;;;;;;;;;;5034497;28;19917;-80
2022/10/27 08:14:40;;;;;;;;;;;;;;;;;;5034342;28;20000;-80
2022/10/27 08:17:06;;;;;;;;;;;;;;;;;;5034046;28;19916;-79
2022/10/27 08:19:32;;;;;;;;;;;;;;;;;;5035369;28;19916;-80
2022/10/27 08:21:58;;;;;;;;;;;;;;;;;;5034083;28;19960;-80
2022/10/27 08:24:24;;;;;;;;;;;;;;;;;;5035240;28;19949;-80
2022/10/27 08:26:50;;;;;;;;;;;;;;;;;;5034098;28;19972;-80
2022/10/27 08:29:16;;;;;;;;;;;;;;;;;;5034123;28;19914;-81
2022/10/27 08:31:41;;;;;;;;;;;;;;;;;;5034170;28;19913;-81
2022/10/27 08:34:07;;;;;;;;;;;;;;;;;;5045322;28;19904;-76
2022/10/27 08:36:37;;;;;;;;;;;;;;;;;;5059681;28;19912;-79
2022/10/27 08:39:03;;;;;;;;;;;;;;;;;;5059491;28;19908;-81
2022/10/27 08:41:29;;;;;;;;;;;;;;;;;;5059913;28;19897;-79
2022/10/27 08:43:55;;;;;;;;;;;;;;;;;;5046475;28;19917;-79
2022/10/27 08:46:21;;;;;;;;;;;;;;;;;;5033447;28;19916;-79
2022/10/27 08:48:47;;;;;;;;;;;;;;;;;;5033389;28;19955;-79
2022/10/27 08:51:13;;;;;;;;;;;;;;;;;;5033778;28;19939;-77
2022/10/27 08:53:39;;;;;;;;;;;;;;;;;;5034745;28;19959;-81
2022/10/27 08:56:05;;;;;;;;;;;;;;;;;;5033637;28;19913;-79
2022/10/27 08:58:31;;;;;;;;;;;;;;;;;;5032264;28;19909;-79
2022/10/27 09:00:56;;;;;;;;;;;;;;;;;;5033138;28;20003;-79
2022/10/27 09:03:22;;;;;;;;;;;;;;;;;;5033748;28;20452;-79
2022/10/27 09:05:48;;;;;;;;;;;;;;;;;;5033220;28;19960;-79
2022/10/27 09:08:14;;;;;;;;;;;;;;;;;;5033347;28;20272;-79
2022/10/27 09:10:40;;;;;;;;;;;;;;;;;;5033268;28;19909;-80
2022/10/27 09:13:06;;;;;;;;;;;;;;;;;;5032937;28;19924;-79
2022/10/27 09:15:32;;;;;;;;;;;;;;;;;;5033092;28;19917;-79
2022/10/27 09:17:58;;;;;;;;;;;;;;;;;;5033075;28;19916;-79
2022/10/27 09:20:24;;;;;;;;;;;;;;;;;;5033127;28;19913;-80
2022/10/27 09:22:49;;;;;;;;;;;;;;;;;;5033117;28;19916;-82
2022/10/27 09:25:15;;;;;;;;;;;;;;;;;;5033115;28;20409;-80
2022/10/27 09:27:41;;;;;;;;;;;;;;;;;;5033080;28;19916;-80
2022/10/27 09:30:07;;;;;;;;;;;;;;;;;;5034361;28;20288;-79
2022/10/27 09:32:33;;;;;;;;;;;;;;;;;;5034564;28;19913;-78
2022/10/27 09:35:00;;;;;;;;;;;;;;;;;;5035418;28;19945;-78
2022/10/27 09:37:26;;;;;;;;;;;;;;;;;;5035181;28;19932;-77
2022/10/27 09:39:56;;;;;;;;;;;;;;;;;;5032501;28;19913;-78
2022/10/27 09:42:22;;;;;;;;;;;;;;;;;;5032575;28;19959;-78
2022/10/27 09:44:48;;;;;;;;;;;;;;;;;;5032590;28;20451;-78
2022/10/27 09:47:14;;;;;;;;;;;;;;;;;;5035281;28;19909;-80
2022/10/27 09:49:40;;;;;;;;;;;;;;;;;;5034183;28;20309;-80
2022/10/27 09:52:06;;;;;;;;;;;;;;;;;;5033522;28;19921;-79
2022/10/27 09:54:32;;;;;;;;;;;;;;;;;;5032307;28;19909;-77
2022/10/27 09:56:58;;;;;;;;;;;;;;;;;;5034479;28;19913;-79
2022/10/27 09:59:24;;;;;;;;;;;;;;;;;;5032195;28;19910;-80
2022/10/27 10:01:55;;;;;;;;;;;;;;;;;;5032385;28;19909;-79
2022/10/27 10:04:21;;;;;;;;;;;;;;;;;;5032256;28;19956;-80
2022/10/27 10:06:47;;;;;;;;;;;;;;;;;;5032244;28;20426;-78
2022/10/27 10:09:13;;;;;;;;;;;;;;;;;;5033494;28;19909;-80
2022/10/27 10:11:39;;;;;;;;;;;;;;;;;;5032092;28;20487;-79
2022/10/27 10:14:05;;;;;;;;;;;;;;;;;;5032102;28;19921;-81
2022/10/27 10:16:32;;;;;;;;;;;;;;;;;;5031966;28;20369;-82
2022/10/27 10:18:57;;;;;;;;;;;;;;;;;;5031889;28;19916;-79
2022/10/27 10:21:23;;;;;;;;;;;;;;;;;;5032168;28;19909;-80
2022/10/27 10:23:50;;;;;;;;;;;;;;;;;;5031756;28;20372;-82
2022/10/27 10:26:16;;;;;;;;;;;;;;;;;;5033206;28;20384;-81
2022/10/27 10:28:42;;;;;;;;;;;;;;;;;;5032016;28;19916;-82
2022/10/27 10:31:07;;;;;;;;;;;;;;;;;;5032036;28;19920;-80
2022/10/27 10:33:33;;;;;;;;;;;;;;;;;;5031935;28;20272;-80
2022/10/27 10:36:02;;;;;;;;;;;;;;;;;;5031577;28;20007;-79
2022/10/27 10:38:28;;;;;;;;;;;;;;;;;;5030930;28;19932;-79
2022/10/27 10:40:53;;;;;;;;;;;;;;;;;;5031570;28;20372;-79
2022/10/27 10:43:19;;;;;;;;;;;;;;;;;;5031602;28;19909;-80
2022/10/27 10:45:45;;;;;;;;;;;;;;;;;;5031214;28;19950;-79
2022/10/27 10:48:11;;;;;;;;;;;;;;;;;;5031808;28;19956;-79
2022/10/27 10:50:37;;;;;;;;;;;;;;;;;;5033892;28;19910;-79
2022/10/27 10:53:03;;;;;;;;;;;;;;;;;;5031729;28;20396;-80
2022/10/27 10:55:29;;;;;;;;;;;;;;;;;;5031756;28;19975;-79
2022/10/27 10:57:55;;;;;;;;;;;;;;;;;;5031508;28;20440;-81
2022/10/27 11:00:21;;;;;;;;;;;;;;;;;;5032355;28;19974;-78
2022/10/27 11:02:46;;;;;;;;;;;;;;;;;;5031573;28;20003;-79
2022/10/27 11:05:12;;;;;;;;;;;;;;;;;;5031805;28;20436;-79
2022/10/27 11:07:38;;;;;;;;;;;;;;;;;;5031416;28;19909;-79
2022/10/27 11:10:04;;;;;;;;;;;;;;;;;;5031623;28;20012;-79
2022/10/27 11:12:30;;;;;;;;;;;;;;;;;;5031314;28;19922;-79
2022/10/27 11:14:56;;;;;;;;;;;;;;;;;;5030883;28;19921;-81
2022/10/27 11:17:22;;;;;;;;;;;;;;;;;;5030926;28;19912;-78
2022/10/27 11:19:48;;;;;;;;;;;;;;;;;;5031266;28;20288;-78
2022/10/27 11:22:14;;;;;;;;;;;;;;;;;;5033035;28;19905;-79
2022/10/27 11:24:39;;;;;;;;;;;;;;;;;;5035110;28;20476;-79
2022/10/27 11:27:05;;;;;;;;;;;;;;;;;;5035190;28;19909;-79
2022/10/27 11:29:31;;;;;;;;;;;;;;;;;;5034950;28;20090;-79
2022/10/27 11:31:57;;;;;;;;;;;;;;;;;;5035252;28;19921;-78
2022/10/27 11:34:23;;;;;;;;;;;;;;;;;;5034866;28;20031;-79
2022/10/27 11:36:49;;;;;;;;;;;;;;;;;;5034720;28;19909;-78
2022/10/27 11:39:15;;;;;;;;;;;;;;;;;;5034987;28;19963;-79
2022/10/27 11:41:41;;;;;;;;;;;;;;;;;;5035006;28;19916;-78
2022/10/27 11:44:06;;;;;;;;;;;;;;;;;;5034323;28;19910;-77
2022/10/27 11:46:32;;;;;;;;;;;;;;;;;;5034084;28;20438;-78
2022/10/27 11:48:58;;;;;;;;;;;;;;;;;;5034268;28;20019;-79
2022/10/27 11:51:24;;;;;;;;;;;;;;;;;;5034598;28;20262;-79
2022/10/27 11:53:50;;;;;;;;;;;;;;;;;;5034298;28;19909;-79
2022/10/27 11:56:16;;;;;;;;;;;;;;;;;;5034386;28;20384;-80
2022/10/27 11:58:42;;;;;;;;;;;;;;;;;;5033939;28;19909;-79
2022/10/27 12:01:08;;;;;;;;;;;;;;;;;;5034468;28;20254;-78
2022/10/27 12:03:34;;;;;;;;;;;;;;;;;;5034395;28;19959;-79
2022/10/27 12:05:59;;;;;;;;;;;;;;;;;;5034328;28;19963;-81
2022/10/27 12:08:25;;;;;;;;;;;;;;;;;;5034285;28;19913;-79
2022/10/27 12:10:51;;;;;;;;;;;;;;;;;;5034233;28;19992;-81
2022/10/27 12:13:17;;;;;;;;;;;;;;;;;;5034149;28;19917;-79
2022/10/27 12:15:43;;;;;;;;;;;;;;;;;;5034173;28;19909;-79
2022/10/27 12:18:09;;;;;;;;;;;;;;;;;;5033973;28;19949;-79
2022/10/27 12:20:35;;;;;;;;;;;;;;;;;;5034435;28;19948;-79
2022/10/27 12:23:02;;;;;;;;;;;;;;;;;;5034128;28;20349;-80
2022/10/27 12:25:28;;;;;;;;;;;;;;;;;;5034007;28;19958;-79
2022/10/27 12:27:57;;;;;;;;;;;;;;;;;;5034034;28;19996;-79
2022/10/27 12:30:22;;;;;;;;;;;;;;;;;;5034050;28;19953;-79
2022/10/27 12:32:48;;;;;;;;;;;;;;;;;;5032839;28;20388;-80
2022/10/27 12:35:14;;;;;;;;;;;;;;;;;;5033375;28;20357;-79
2022/10/27 12:37:40;;;;;;;;;;;;;;;;;;5033810;28;19910;-79
2022/10/27 12:40:06;;;;;;;;;;;;;;;;;;5035275;28;19913;-75
2022/10/27 12:42:33;;;;;;;;;;;;;;;;;;5032325;28;19967;-79
2022/10/27 12:45:00;;;;;;;;;;;;;;;;;;5027235;28;20384;-79
2022/10/27 12:47:26;;;;;;;;;;;;;;;;;;5016271;28;19913;-77
2022/10/27 12:49:52;;;;;;;;;;;;;;;;;;5034153;28;19909;-77
2022/10/27 12:52:17;;;;;;;;;;;;;;;;;;5038698;28;19963;-76
2022/10/27 12:54:43;;;;;;;;;;;;;;;;;;5036269;28;20038;-77
2022/10/27 12:57:09;;;;;;;;;;;;;;;;;;5034172;28;19916;-77
2022/10/27 12:59:35;;;;;;;;;;;;;;;;;;5033431;28;19913;-78
2022/10/27 13:02:01;;;;;;;;;;;;;;;;;;5023489;28;19910;-78
2022/10/27 13:04:27;;;;;;;;;;;;;;;;;;5032817;28;19909;-77
2022/10/27 13:06:53;;;;;;;;;;;;;;;;;;5016820;28;19963;-76
2022/10/27 13:09:19;;;;;;;;;;;;;;;;;;5013760;28;20582;-76
2022/10/27 13:11:45;;;;;;;;;;;;;;;;;;5014776;28;20362;-75
2022/10/27 13:14:11;;;;;;;;;;;;;;;;;;5014757;28;20270;-76
2022/10/27 13:16:37;;;;;;;;;;;;;;;;;;5013066;28;19955;-76
2022/10/27 13:19:02;;;;;;;;;;;;;;;;;;5013595;28;19910;-76
2022/10/27 13:21:28;;;;;;;;;;;;;;;;;;5013746;28;19913;-76
2022/10/27 13:23:54;;;;;;;;;;;;;;;;;;5013645;28;19964;-76
2022/10/27 13:26:20;;;;;;;;;;;;;;;;;;5014794;28;20423;-76
2022/10/27 13:28:46;;;;;;;;;;;;;;;;;;5013269;28;19920;-76
2022/10/27 13:31:12;;;;;;;;;;;;;;;;;;5014610;28;19917;-77
2022/10/27 13:33:39;;;;;;;;;;;;;;;;;;5013184;28;19913;-76
2022/10/27 13:36:04;;;;;;;;;;;;;;;;;;5014236;28;19916;-77
2022/10/27 13:38:30;;;;;;;;;;;;;;;;;;5014247;28;19909;-76
2022/10/27 13:40:56;;;;;;;;;;;;;;;;;;5013034;28;19977;-77
2022/10/27 13:43:22;;;;;;;;;;;;;;;;;;5013550;28;19917;-77
2022/10/27 13:45:48;;;;;;;;;;;;;;;;;;5012143;28;20577;-76
2022/10/27 13:48:14;;;;;;;;;;;;;;;;;;5014327;28;19956;-76
2022/10/27 13:50:40;;;;;;;;;;;;;;;;;;5014277;28;20008;-75
2022/10/27 13:53:06;;;;;;;;;;;;;;;;;;5012741;28;19999;-76
2022/10/27 13:55:32;;;;;;;;;;;;;;;;;;5012877;28;19916;-76
2022/10/27 13:57:58;;;;;;;;;;;;;;;;;;5012854;28;19945;-76
2022/10/27 14:00:24;;;;;;;;;;;;;;;;;;5013760;28;19917;-75
2022/10/27 14:02:50;;;;;;;;;;;;;;;;;;5013628;28;19971;-76
2022/10/27 14:05:16;;;;;;;;;;;;;;;;;;5013694;28;19913;-77
2022/10/27 14:07:42;;;;;;;;;;;;;;;;;;5012491;28;20290;-77
2022/10/27 14:10:07;;;;;;;;;;;;;;;;;;5012517;28;19956;-77
2022/10/27 14:12:33;;;;;;;;;;;;;;;;;;5013967;28;20396;-75
2022/10/27 14:14:59;;;;;;;;;;;;;;;;;;5084323;22;19924;-76
2022/10/27 14:17:25;;;;;;;;;;;;;;;;;;5072415;28;19933;-76
2022/10/27 14:19:51;;;;;;;;;;;;;;;;;;5072833;28;19966;-75
2022/10/27 14:22:18;;;;;;;;;;;;;;;;;;5072677;28;19958;-76
2022/10/27 14:24:44;;;;;;;;;;;;;;;;;;5072841;28;19908;-75
2022/10/27 14:27:09;;;;;;;;;;;;;;;;;;5072204;28;19939;-75
2022/10/27 14:29:35;;;;;;;;;;;;;;;;;;5071178;28;20007;-75
2022/10/27 14:32:01;;;;;;;;;;;;;;;;;;5072875;28;19912;-75
2022/10/27 14:34:27;;;;;;;;;;;;;;;;;;5072021;28;19913;-75
2022/10/27 14:36:53;;;;;;;;;;;;;;;;;;5072750;28;19909;-76
2022/10/27 14:39:19;;;;;;;;;;;;;;;;;;5072922;28;19915;-76
2022/10/27 14:41:48;;;;;;;;;;;;;;;;;;5072828;28;19909;-76
2022/10/27 14:44:14;;;;;;;;;;;;;;;;;;5073308;28;19909;-76
2022/10/27 14:46:40;;;;;;;;;;;;;;;;;;5072367;28;20377;-75
2022/10/27 14:49:06;;;;;;;;;;;;;;;;;;5073777;28;19936;-75
2022/10/27 14:51:32;;;;;;;;;;;;;;;;;;5072938;28;19958;-76
2022/10/27 14:53:58;;;;;;;;;;;;;;;;;;5072756;28;19912;-75
2022/10/27 14:56:23;;;;;;;;;;;;;;;;;;5071890;28;19908;-75
2022/10/27 14:58:49;;;;;;;;;;;;;;;;;;5072214;28;19915;-76
2022/10/27 15:01:15;;;;;;;;;;;;;;;;;;5072487;28;20003;-75
2022/10/27 15:03:41;;;;;;;;;;;;;;;;;;5071029;28;19913;-75
2022/10/27 15:06:07;;;;;;;;;;;;;;;;;;5071044;28;19913;-76
2022/10/27 15:08:34;;;;;;;;;;;;;;;;;;5072214;28;19909;-76
2022/10/27 15:11:00;;;;;;;;;;;;;;;;;;5070975;28;19908;-76
2022/10/27 15:13:26;;;;;;;;;;;;;;;;;;5070751;28;19966;-76
2022/10/27 15:15:52;;;;;;;;;;;;;;;;;;5072398;28;19908;-75
2022/10/27 15:18:18;;;;;;;;;;;;;;;;;;5072500;28;19916;-75
2022/10/27 15:20:44;;;;;;;;;;;;;;;;;;5072426;28;20359;-75
2022/10/27 15:23:09;;;;;;;;;;;;;;;;;;5072612;28;19916;-76
2022/10/27 15:25:37;;;;;;;;;;;;;;;;;;5072365;28;20107;-75
2022/10/27 15:28:03;;;;;;;;;;;;;;;;;;5072502;28;19915;-76
2022/10/27 15:30:28;;;;;;;;;;;;;;;;;;5072333;28;19913;-76
2022/10/27 15:32:54;;;;;;;;;;;;;;;;;;5071861;28;20364;-76
2022/10/27 15:35:20;;;;;;;;;;;;;;;;;;5071836;28;19912;-76
2022/10/27 15:37:46;;;;;;;;;;;;;;;;;;5071478;28;19908;-76
2022/10/27 15:40:12;;;;;;;;;;;;;;;;;;5089114;28;19919;-79
2022/10/27 15:42:38;;;;;;;;;;;;;;;;;;5091092;28;20003;-76
2022/10/27 15:45:04;;;;;;;;;;;;;;;;;;5092637;28;19962;-78
2022/10/27 15:47:30;;;;;;;;;;;;;;;;;;5092601;28;19995;-76
2022/10/27 15:49:56;;;;;;;;;;;;;;;;;;5093480;28;19908;-76
2022/10/27 15:52:22;;;;;;;;;;;;;;;;;;5091845;28;19919;-76
2022/10/27 15:54:53;;;;;;;;;;;;;;;;;;5091929;28;19912;-76
2022/10/27 15:57:19;;;;;;;;;;;;;;;;;;5089103;28;20069;-75
2022/10/27 15:59:45;;;;;;;;;;;;;;;;;;5091987;28;19953;-75
2022/10/27 16:02:11;;;;;;;;;;;;;;;;;;5090394;28;19908;-75
2022/10/27 16:04:37;;;;;;;;;;;;;;;;;;5090441;28;19908;-75
2022/10/27 16:07:02;;;;;;;;;;;;;;;;;;5091715;28;19931;-76
2022/10/27 16:09:28;;;;;;;;;;;;;;;;;;5093888;28;19912;-75
2022/10/27 16:11:54;;;;;;;;;;;;;;;;;;5094633;28;19912;-75
2022/10/27 16:14:20;;;;;;;;;;;;;;;;;;5095222;28;20332;-75
2022/10/27 16:16:47;;;;;;;;;;;;;;;;;;5094121;28;19908;-75
2022/10/27 16:19:16;;;;;;;;;;;;;;;;;;5095184;28;19916;-75
2022/10/27 16:21:42;;;;;;;;;;;;;;;;;;5095601;28;19954;-75
2022/10/27 16:24:08;;;;;;;;;;;;;;;;;;5093626;28;19912;-75
2022/10/27 16:26:33;;;;;;;;;;;;;;;;;;5090354;28;19915;-76
2022/10/27 16:29:00;;;;;;;;;;;;;;;;;;5087411;28;19958;-75
2022/10/27 16:31:27;;;;;;;;;;;;;;;;;;5076699;28;20433;-76
2022/10/27 16:33:52;;;;;;;;;;;;;;;;;;5086153;28;19991;-75
2022/10/27 16:36:18;;;;;;;;;;;;;;;;;;5097946;28;19958;-77